sensor_id;sensor_type;location;lat;lon;timestamp;P1;durP1;ratioP1;P2;durP2;ratioP2
5961;SDS011;3007;50.770;0.250;2022-11-12T00:00:58;6.87;;;4.80;;
5961;SDS011;3007;50.770;0.250;2022-11-12T00:03:25;11.43;;;5.50;;
5961;SDS011;3007;50.770;0.250;2022-11-12T00:05:53;7.53;;;5.83;;
5961;SDS011;3007;50.770;0.250;2022-11-12T00:08:20;9.87;;;5.80;;
5961;SDS011;3007;50.770;0.250;2022-11-12T00:10:47;9.93;;;5.20;;
5961;SDS011;3007;50.770;0.250;2022-11-12T00:13:14;8.60;;;5.87;;
5961;SDS011;3007;50.770;0.250;2022-11-12T00:15:41;8.83;;;5.57;;
5961;SDS011;3007;50.770;0.250;2022-11-12T00:18:08;10.60;;;5.70;;
5961;SDS011;3007;50.770;0.250;2022-11-12T00:20:35;8.87;;;6.47;;
5961;SDS011;3007;50.770;0.250;2022-11-12T00:23:03;11.17;;;5.50;;
5961;SDS011;3007;50.770;0.250;2022-11-12T00:25:30;7.17;;;5.37;;
5961;SDS011;3007;50.770;0.250;2022-11-12T00:28:01;7.63;;;5.47;;
5961;SDS011;3007;50.770;0.250;2022-11-12T00:30:28;8.47;;;5.23;;
5961;SDS011;3007;50.770;0.250;2022-11-12T00:32:55;7.87;;;5.80;;
5961;SDS011;3007;50.770;0.250;2022-11-12T00:35:22;6.77;;;5.90;;
5961;SDS011;3007;50.770;0.250;2022-11-12T00:37:52;11.70;;;5.80;;
5961;SDS011;3007;50.770;0.250;2022-11-12T00:40:22;8.60;;;5.57;;
5961;SDS011;3007;50.770;0.250;2022-11-12T00:42:49;7.47;;;5.80;;
5961;SDS011;3007;50.770;0.250;2022-11-12T00:45:16;12.30;;;6.00;;
5961;SDS011;3007;50.770;0.250;2022-11-12T00:47:43;10.07;;;6.20;;
5961;SDS011;3007;50.770;0.250;2022-11-12T00:50:10;10.90;;;6.00;;
5961;SDS011;3007;50.770;0.250;2022-11-12T00:52:37;7.90;;;5.93;;
5961;SDS011;3007;50.770;0.250;2022-11-12T00:55:04;12.83;;;6.27;;
5961;SDS011;3007;50.770;0.250;2022-11-12T00:57:33;7.60;;;5.63;;
5961;SDS011;3007;50.770;0.250;2022-11-12T01:00:00;9.43;;;5.77;;
5961;SDS011;3007;50.770;0.250;2022-11-12T01:02:27;12.17;;;5.70;;
5961;SDS011;3007;50.770;0.250;2022-11-12T01:04:53;8.93;;;5.40;;
5961;SDS011;3007;50.770;0.250;2022-11-12T01:07:20;8.00;;;5.70;;
5961;SDS011;3007;50.770;0.250;2022-11-12T01:09:47;10.80;;;6.03;;
5961;SDS011;3007;50.770;0.250;2022-11-12T01:12:14;6.67;;;5.80;;
5961;SDS011;3007;50.770;0.250;2022-11-12T01:14:43;6.93;;;5.37;;
5961;SDS011;3007;50.770;0.250;2022-11-12T01:17:10;8.70;;;5.57;;
5961;SDS011;3007;50.770;0.250;2022-11-12T01:19:37;11.30;;;5.47;;
5961;SDS011;3007;50.770;0.250;2022-11-12T01:22:03;6.57;;;5.67;;
5961;SDS011;3007;50.770;0.250;2022-11-12T01:24:30;6.73;;;5.03;;
5961;SDS011;3007;50.770;0.250;2022-11-12T01:26:57;11.03;;;5.60;;
5961;SDS011;3007;50.770;0.250;2022-11-12T01:29:24;8.13;;;6.00;;
5961;SDS011;3007;50.770;0.250;2022-11-12T01:31:52;9.03;;;5.63;;
5961;SDS011;3007;50.770;0.250;2022-11-12T01:34:19;10.00;;;5.17;;
5961;SDS011;3007;50.770;0.250;2022-11-12T01:36:46;8.77;;;5.57;;
5961;SDS011;3007;50.770;0.250;2022-11-12T01:39:13;9.20;;;5.63;;
5961;SDS011;3007;50.770;0.250;2022-11-12T01:41:40;9.83;;;5.40;;
5961;SDS011;3007;50.770;0.250;2022-11-12T01:44:11;9.77;;;6.00;;
5961;SDS011;3007;50.770;0.250;2022-11-12T01:46:42;10.30;;;5.40;;
5961;SDS011;3007;50.770;0.250;2022-11-12T01:49:20;11.63;;;5.57;;
5961;SDS011;3007;50.770;0.250;2022-11-12T01:51:51;9.10;;;5.37;;
5961;SDS011;3007;50.770;0.250;2022-11-12T01:54:22;9.23;;;6.07;;
5961;SDS011;3007;50.770;0.250;2022-11-12T01:56:50;10.87;;;5.20;;
5961;SDS011;3007;50.770;0.250;2022-11-12T01:59:19;9.23;;;6.23;;
5961;SDS011;3007;50.770;0.250;2022-11-12T02:01:50;8.63;;;5.67;;
5961;SDS011;3007;50.770;0.250;2022-11-12T02:04:17;10.97;;;5.67;;
5961;SDS011;3007;50.770;0.250;2022-11-12T02:06:46;8.60;;;5.80;;
5961;SDS011;3007;50.770;0.250;2022-11-12T02:09:14;12.93;;;6.63;;
5961;SDS011;3007;50.770;0.250;2022-11-12T02:11:41;12.83;;;5.90;;
5961;SDS011;3007;50.770;0.250;2022-11-12T02:14:09;11.53;;;5.30;;
5961;SDS011;3007;50.770;0.250;2022-11-12T02:16:35;8.93;;;6.10;;
5961;SDS011;3007;50.770;0.250;2022-11-12T02:19:05;7.97;;;6.23;;
5961;SDS011;3007;50.770;0.250;2022-11-12T02:21:35;13.00;;;5.10;;
5961;SDS011;3007;50.770;0.250;2022-11-12T02:24:03;7.07;;;5.80;;
5961;SDS011;3007;50.770;0.250;2022-11-12T02:26:32;10.83;;;6.40;;
5961;SDS011;3007;50.770;0.250;2022-11-12T02:29:02;8.77;;;5.97;;
5961;SDS011;3007;50.770;0.250;2022-11-12T02:31:29;12.43;;;5.87;;
5961;SDS011;3007;50.770;0.250;2022-11-12T02:33:56;7.97;;;5.90;;
5961;SDS011;3007;50.770;0.250;2022-11-12T02:36:23;10.47;;;6.10;;
5961;SDS011;3007;50.770;0.250;2022-11-12T02:38:51;13.50;;;6.53;;
5961;SDS011;3007;50.770;0.250;2022-11-12T02:41:18;9.53;;;6.13;;
5961;SDS011;3007;50.770;0.250;2022-11-12T02:43:45;10.30;;;6.33;;
5961;SDS011;3007;50.770;0.250;2022-11-12T02:46:13;9.30;;;6.50;;
5961;SDS011;3007;50.770;0.250;2022-11-12T02:48:40;6.70;;;5.47;;
5961;SDS011;3007;50.770;0.250;2022-11-12T02:51:07;13.30;;;6.10;;
5961;SDS011;3007;50.770;0.250;2022-11-12T02:53:34;7.77;;;5.73;;
5961;SDS011;3007;50.770;0.250;2022-11-12T02:56:02;8.57;;;6.07;;
5961;SDS011;3007;50.770;0.250;2022-11-12T02:58:29;9.27;;;5.80;;
5961;SDS011;3007;50.770;0.250;2022-11-12T03:00:56;8.70;;;6.37;;
5961;SDS011;3007;50.770;0.250;2022-11-12T03:03:23;8.33;;;5.63;;
5961;SDS011;3007;50.770;0.250;2022-11-12T03:05:53;8.77;;;6.43;;
5961;SDS011;3007;50.770;0.250;2022-11-12T03:08:23;10.67;;;7.17;;
5961;SDS011;3007;50.770;0.250;2022-11-12T03:10:50;9.43;;;6.43;;
5961;SDS011;3007;50.770;0.250;2022-11-12T03:13:19;12.93;;;6.40;;
5961;SDS011;3007;50.770;0.250;2022-11-12T03:15:46;10.83;;;6.57;;
5961;SDS011;3007;50.770;0.250;2022-11-12T03:18:13;11.37;;;6.87;;
5961;SDS011;3007;50.770;0.250;2022-11-12T03:20:40;11.47;;;6.37;;
5961;SDS011;3007;50.770;0.250;2022-11-12T03:23:08;7.97;;;6.53;;
5961;SDS011;3007;50.770;0.250;2022-11-12T03:25:36;9.23;;;6.30;;
5961;SDS011;3007;50.770;0.250;2022-11-12T03:28:03;9.60;;;6.33;;
5961;SDS011;3007;50.770;0.250;2022-11-12T03:30:33;14.57;;;6.87;;
5961;SDS011;3007;50.770;0.250;2022-11-12T03:33:02;10.50;;;6.67;;
5961;SDS011;3007;50.770;0.250;2022-11-12T03:35:30;6.80;;;6.07;;
5961;SDS011;3007;50.770;0.250;2022-11-12T03:37:58;11.53;;;6.93;;
5961;SDS011;3007;50.770;0.250;2022-11-12T03:40:25;8.83;;;6.33;;
5961;SDS011;3007;50.770;0.250;2022-11-12T03:42:52;9.53;;;5.70;;
5961;SDS011;3007;50.770;0.250;2022-11-12T03:45:20;7.17;;;6.33;;
5961;SDS011;3007;50.770;0.250;2022-11-12T03:47:50;11.27;;;6.80;;
5961;SDS011;3007;50.770;0.250;2022-11-12T03:50:18;8.63;;;6.23;;
5961;SDS011;3007;50.770;0.250;2022-11-12T03:52:47;11.67;;;6.77;;
5961;SDS011;3007;50.770;0.250;2022-11-12T03:55:16;15.70;;;7.00;;
5961;SDS011;3007;50.770;0.250;2022-11-12T03:57:46;11.30;;;6.50;;
5961;SDS011;3007;50.770;0.250;2022-11-12T04:00:14;10.00;;;7.47;;
5961;SDS011;3007;50.770;0.250;2022-11-12T04:02:41;8.50;;;7.37;;
5961;SDS011;3007;50.770;0.250;2022-11-12T04:05:10;12.20;;;7.30;;
5961;SDS011;3007;50.770;0.250;2022-11-12T04:07:57;10.13;;;6.03;;
5961;SDS011;3007;50.770;0.250;2022-11-12T04:10:43;9.97;;;7.47;;
5961;SDS011;3007;50.770;0.250;2022-11-12T04:13:09;10.77;;;6.87;;
5961;SDS011;3007;50.770;0.250;2022-11-12T04:15:56;10.87;;;6.53;;
5961;SDS011;3007;50.770;0.250;2022-11-12T04:18:41;16.53;;;7.30;;
5961;SDS011;3007;50.770;0.250;2022-11-12T04:21:29;8.13;;;6.37;;
5961;SDS011;3007;50.770;0.250;2022-11-12T04:24:14;11.03;;;7.17;;
5961;SDS011;3007;50.770;0.250;2022-11-12T04:27:12;13.10;;;8.00;;
5961;SDS011;3007;50.770;0.250;2022-11-12T04:29:40;13.40;;;7.37;;
5961;SDS011;3007;50.770;0.250;2022-11-12T04:32:25;10.50;;;7.33;;
5961;SDS011;3007;50.770;0.250;2022-11-12T04:34:53;10.83;;;7.60;;
5961;SDS011;3007;50.770;0.250;2022-11-12T04:37:21;10.73;;;6.83;;
5961;SDS011;3007;50.770;0.250;2022-11-12T04:39:49;7.30;;;6.03;;
5961;SDS011;3007;50.770;0.250;2022-11-12T04:42:16;9.17;;;7.17;;
5961;SDS011;3007;50.770;0.250;2022-11-12T04:45:01;8.77;;;6.20;;
5961;SDS011;3007;50.770;0.250;2022-11-12T04:47:30;12.27;;;6.43;;
5961;SDS011;3007;50.770;0.250;2022-11-12T04:49:59;11.60;;;6.97;;
5961;SDS011;3007;50.770;0.250;2022-11-12T04:52:28;12.00;;;7.27;;
5961;SDS011;3007;50.770;0.250;2022-11-12T04:54:56;8.67;;;6.60;;
5961;SDS011;3007;50.770;0.250;2022-11-12T04:57:24;16.67;;;7.83;;
5961;SDS011;3007;50.770;0.250;2022-11-12T04:59:51;13.33;;;7.40;;
5961;SDS011;3007;50.770;0.250;2022-11-12T05:02:18;11.73;;;7.33;;
5961;SDS011;3007;50.770;0.250;2022-11-12T05:04:45;14.13;;;8.30;;
5961;SDS011;3007;50.770;0.250;2022-11-12T05:07:12;12.97;;;8.80;;
5961;SDS011;3007;50.770;0.250;2022-11-12T05:09:41;10.27;;;8.13;;
5961;SDS011;3007;50.770;0.250;2022-11-12T05:12:08;12.27;;;8.43;;
5961;SDS011;3007;50.770;0.250;2022-11-12T05:14:35;11.43;;;7.47;;
5961;SDS011;3007;50.770;0.250;2022-11-12T05:17:02;14.53;;;8.00;;
5961;SDS011;3007;50.770;0.250;2022-11-12T05:19:29;14.33;;;8.57;;
5961;SDS011;3007;50.770;0.250;2022-11-12T05:21:56;10.77;;;8.07;;
5961;SDS011;3007;50.770;0.250;2022-11-12T05:24:32;10.27;;;7.47;;
5961;SDS011;3007;50.770;0.250;2022-11-12T05:27:03;10.57;;;7.97;;
5961;SDS011;3007;50.770;0.250;2022-11-12T05:29:31;14.60;;;9.07;;
5961;SDS011;3007;50.770;0.250;2022-11-12T05:31:58;14.33;;;8.10;;
5961;SDS011;3007;50.770;0.250;2022-11-12T05:34:25;11.47;;;7.67;;
5961;SDS011;3007;50.770;0.250;2022-11-12T05:36:52;13.37;;;7.67;;
5961;SDS011;3007;50.770;0.250;2022-11-12T05:39:19;11.80;;;7.87;;
5961;SDS011;3007;50.770;0.250;2022-11-12T05:41:46;16.03;;;8.53;;
5961;SDS011;3007;50.770;0.250;2022-11-12T05:44:15;12.07;;;7.87;;
5961;SDS011;3007;50.770;0.250;2022-11-12T05:46:42;12.57;;;8.73;;
5961;SDS011;3007;50.770;0.250;2022-11-12T05:49:09;17.53;;;9.30;;
5961;SDS011;3007;50.770;0.250;2022-11-12T05:51:36;13.83;;;7.70;;
5961;SDS011;3007;50.770;0.250;2022-11-12T05:54:03;12.33;;;9.07;;
5961;SDS011;3007;50.770;0.250;2022-11-12T05:56:30;12.37;;;8.40;;
5961;SDS011;3007;50.770;0.250;2022-11-12T05:58:57;12.73;;;8.80;;
5961;SDS011;3007;50.770;0.250;2022-11-12T06:01:25;19.57;;;9.10;;
5961;SDS011;3007;50.770;0.250;2022-11-12T06:03:52;14.07;;;9.20;;
5961;SDS011;3007;50.770;0.250;2022-11-12T06:06:19;10.97;;;9.53;;
5961;SDS011;3007;50.770;0.250;2022-11-12T06:08:46;13.23;;;9.73;;
5961;SDS011;3007;50.770;0.250;2022-11-12T06:11:13;14.33;;;9.10;;
5961;SDS011;3007;50.770;0.250;2022-11-12T06:13:40;9.73;;;8.57;;
5961;SDS011;3007;50.770;0.250;2022-11-12T06:16:07;12.87;;;9.60;;
5961;SDS011;3007;50.770;0.250;2022-11-12T06:18:35;11.73;;;8.47;;
5961;SDS011;3007;50.770;0.250;2022-11-12T06:21:03;14.37;;;9.37;;
5961;SDS011;3007;50.770;0.250;2022-11-12T06:23:48;13.03;;;9.40;;
5961;SDS011;3007;50.770;0.250;2022-11-12T06:26:16;11.17;;;9.00;;
5961;SDS011;3007;50.770;0.250;2022-11-12T06:28:43;12.57;;;9.40;;
5961;SDS011;3007;50.770;0.250;2022-11-12T06:31:11;12.17;;;9.63;;
5961;SDS011;3007;50.770;0.250;2022-11-12T06:33:40;14.93;;;10.20;;
5961;SDS011;3007;50.770;0.250;2022-11-12T06:36:07;12.60;;;8.70;;
5961;SDS011;3007;50.770;0.250;2022-11-12T06:38:36;9.83;;;7.90;;
5961;SDS011;3007;50.770;0.250;2022-11-12T06:41:04;10.17;;;7.93;;
5961;SDS011;3007;50.770;0.250;2022-11-12T06:43:32;12.43;;;9.53;;
5961;SDS011;3007;50.770;0.250;2022-11-12T06:46:00;10.23;;;8.43;;
5961;SDS011;3007;50.770;0.250;2022-11-12T06:48:27;9.57;;;8.53;;
5961;SDS011;3007;50.770;0.250;2022-11-12T06:50:56;11.13;;;8.57;;
5961;SDS011;3007;50.770;0.250;2022-11-12T06:53:23;17.87;;;10.03;;
5961;SDS011;3007;50.770;0.250;2022-11-12T06:55:50;13.07;;;8.27;;
5961;SDS011;3007;50.770;0.250;2022-11-12T06:58:17;16.60;;;9.67;;
5961;SDS011;3007;50.770;0.250;2022-11-12T07:00:44;14.93;;;10.07;;
5961;SDS011;3007;50.770;0.250;2022-11-12T07:03:12;15.80;;;9.80;;
5961;SDS011;3007;50.770;0.250;2022-11-12T07:05:40;15.30;;;10.57;;
5961;SDS011;3007;50.770;0.250;2022-11-12T07:08:08;14.37;;;9.70;;
5961;SDS011;3007;50.770;0.250;2022-11-12T07:10:35;13.53;;;10.40;;
5961;SDS011;3007;50.770;0.250;2022-11-12T07:13:02;13.70;;;10.03;;
5961;SDS011;3007;50.770;0.250;2022-11-12T07:15:29;14.13;;;10.03;;
5961;SDS011;3007;50.770;0.250;2022-11-12T07:17:55;15.20;;;11.03;;
5961;SDS011;3007;50.770;0.250;2022-11-12T07:20:22;16.10;;;10.53;;
5961;SDS011;3007;50.770;0.250;2022-11-12T07:22:49;23.30;;;13.03;;
5961;SDS011;3007;50.770;0.250;2022-11-12T07:25:17;16.03;;;12.40;;
5961;SDS011;3007;50.770;0.250;2022-11-12T07:27:44;20.73;;;11.97;;
5961;SDS011;3007;50.770;0.250;2022-11-12T07:30:12;22.03;;;12.20;;
5961;SDS011;3007;50.770;0.250;2022-11-12T07:32:39;19.17;;;13.33;;
5961;SDS011;3007;50.770;0.250;2022-11-12T07:35:06;20.50;;;12.87;;
5961;SDS011;3007;50.770;0.250;2022-11-12T07:37:33;19.40;;;12.13;;
5961;SDS011;3007;50.770;0.250;2022-11-12T07:40:01;19.60;;;12.33;;
5961;SDS011;3007;50.770;0.250;2022-11-12T07:42:30;19.83;;;11.90;;
5961;SDS011;3007;50.770;0.250;2022-11-12T07:44:58;18.23;;;11.77;;
5961;SDS011;3007;50.770;0.250;2022-11-12T07:47:25;18.63;;;11.60;;
5961;SDS011;3007;50.770;0.250;2022-11-12T07:49:52;20.97;;;11.50;;
5961;SDS011;3007;50.770;0.250;2022-11-12T07:52:19;13.10;;;10.53;;
5961;SDS011;3007;50.770;0.250;2022-11-12T07:54:46;18.00;;;10.87;;
5961;SDS011;3007;50.770;0.250;2022-11-12T07:57:13;12.83;;;10.10;;
5961;SDS011;3007;50.770;0.250;2022-11-12T07:59:41;14.20;;;10.40;;
5961;SDS011;3007;50.770;0.250;2022-11-12T08:02:08;18.03;;;11.80;;
5961;SDS011;3007;50.770;0.250;2022-11-12T08:04:35;15.23;;;11.07;;
5961;SDS011;3007;50.770;0.250;2022-11-12T08:07:02;17.13;;;9.47;;
5961;SDS011;3007;50.770;0.250;2022-11-12T08:09:29;18.90;;;11.20;;
5961;SDS011;3007;50.770;0.250;2022-11-12T08:11:55;12.30;;;9.67;;
5961;SDS011;3007;50.770;0.250;2022-11-12T08:14:22;15.63;;;10.90;;
5961;SDS011;3007;50.770;0.250;2022-11-12T08:16:51;11.73;;;10.47;;
5961;SDS011;3007;50.770;0.250;2022-11-12T08:19:18;16.90;;;11.20;;
5961;SDS011;3007;50.770;0.250;2022-11-12T08:21:44;13.37;;;9.83;;
5961;SDS011;3007;50.770;0.250;2022-11-12T08:24:11;16.23;;;10.50;;
5961;SDS011;3007;50.770;0.250;2022-11-12T08:26:38;15.17;;;10.63;;
5961;SDS011;3007;50.770;0.250;2022-11-12T08:29:05;13.63;;;10.87;;
5961;SDS011;3007;50.770;0.250;2022-11-12T08:31:32;13.97;;;9.80;;
5961;SDS011;3007;50.770;0.250;2022-11-12T08:34:00;15.43;;;10.40;;
5961;SDS011;3007;50.770;0.250;2022-11-12T08:36:35;14.03;;;9.67;;
5961;SDS011;3007;50.770;0.250;2022-11-12T08:39:04;13.27;;;9.83;;
5961;SDS011;3007;50.770;0.250;2022-11-12T08:41:32;13.70;;;9.20;;
5961;SDS011;3007;50.770;0.250;2022-11-12T08:43:59;10.50;;;9.07;;
5961;SDS011;3007;50.770;0.250;2022-11-12T08:46:26;9.70;;;8.67;;
5961;SDS011;3007;50.770;0.250;2022-11-12T08:48:53;11.80;;;8.27;;
5961;SDS011;3007;50.770;0.250;2022-11-12T08:51:21;13.90;;;9.40;;
5961;SDS011;3007;50.770;0.250;2022-11-12T08:53:48;13.03;;;10.37;;
5961;SDS011;3007;50.770;0.250;2022-11-12T08:56:15;15.43;;;9.80;;
5961;SDS011;3007;50.770;0.250;2022-11-12T08:58:42;14.60;;;9.90;;
5961;SDS011;3007;50.770;0.250;2022-11-12T09:01:09;11.33;;;8.17;;
5961;SDS011;3007;50.770;0.250;2022-11-12T09:03:36;14.77;;;9.50;;
5961;SDS011;3007;50.770;0.250;2022-11-12T09:06:03;11.47;;;9.27;;
5961;SDS011;3007;50.770;0.250;2022-11-12T09:08:34;14.07;;;9.50;;
5961;SDS011;3007;50.770;0.250;2022-11-12T09:11:02;14.23;;;8.97;;
5961;SDS011;3007;50.770;0.250;2022-11-12T09:13:29;9.90;;;8.83;;
5961;SDS011;3007;50.770;0.250;2022-11-12T09:15:59;13.53;;;8.50;;
5961;SDS011;3007;50.770;0.250;2022-11-12T09:18:27;13.20;;;8.50;;
5961;SDS011;3007;50.770;0.250;2022-11-12T09:20:58;9.57;;;8.00;;
5961;SDS011;3007;50.770;0.250;2022-11-12T09:23:25;12.90;;;8.27;;
5961;SDS011;3007;50.770;0.250;2022-11-12T09:25:54;12.63;;;8.73;;
5961;SDS011;3007;50.770;0.250;2022-11-12T09:28:22;11.10;;;7.60;;
5961;SDS011;3007;50.770;0.250;2022-11-12T09:30:49;9.23;;;7.63;;
5961;SDS011;3007;50.770;0.250;2022-11-12T09:33:18;11.30;;;7.57;;
5961;SDS011;3007;50.770;0.250;2022-11-12T09:35:47;10.73;;;8.07;;
5961;SDS011;3007;50.770;0.250;2022-11-12T09:38:14;9.00;;;7.40;;
5961;SDS011;3007;50.770;0.250;2022-11-12T09:40:55;8.90;;;7.27;;
5961;SDS011;3007;50.770;0.250;2022-11-12T09:43:50;9.90;;;8.00;;
5961;SDS011;3007;50.770;0.250;2022-11-12T09:46:24;9.43;;;7.83;;
5961;SDS011;3007;50.770;0.250;2022-11-12T09:49:04;11.73;;;7.43;;
5961;SDS011;3007;50.770;0.250;2022-11-12T09:51:36;14.27;;;8.00;;
5961;SDS011;3007;50.770;0.250;2022-11-12T09:54:11;12.43;;;7.63;;
5961;SDS011;3007;50.770;0.250;2022-11-12T09:56:47;8.73;;;6.93;;
5961;SDS011;3007;50.770;0.250;2022-11-12T09:59:14;10.40;;;7.23;;
5961;SDS011;3007;50.770;0.250;2022-11-12T10:01:43;10.70;;;7.67;;
5961;SDS011;3007;50.770;0.250;2022-11-12T10:07:26;10.10;;;6.63;;
5961;SDS011;3007;50.770;0.250;2022-11-12T10:10:07;8.40;;;6.60;;
5961;SDS011;3007;50.770;0.250;2022-11-12T10:12:43;10.43;;;6.37;;
5961;SDS011;3007;50.770;0.250;2022-11-12T10:15:35;8.17;;;5.93;;
5961;SDS011;3007;50.770;0.250;2022-11-12T10:18:27;7.57;;;6.57;;
5961;SDS011;3007;50.770;0.250;2022-11-12T10:21:07;9.03;;;7.50;;
5961;SDS011;3007;50.770;0.250;2022-11-12T10:23:42;9.03;;;6.00;;
5961;SDS011;3007;50.770;0.250;2022-11-12T10:26:12;7.43;;;6.63;;
5961;SDS011;3007;50.770;0.250;2022-11-12T10:28:42;9.07;;;6.90;;
5961;SDS011;3007;50.770;0.250;2022-11-12T10:31:13;8.37;;;7.03;;
5961;SDS011;3007;50.770;0.250;2022-11-12T10:33:42;7.97;;;7.03;;
5961;SDS011;3007;50.770;0.250;2022-11-12T10:36:11;7.67;;;6.77;;
5961;SDS011;3007;50.770;0.250;2022-11-12T10:38:46;9.90;;;7.47;;
5961;SDS011;3007;50.770;0.250;2022-11-12T10:41:17;8.73;;;6.87;;
5961;SDS011;3007;50.770;0.250;2022-11-12T10:43:53;8.57;;;6.87;;
5961;SDS011;3007;50.770;0.250;2022-11-12T10:46:22;10.67;;;7.50;;
5961;SDS011;3007;50.770;0.250;2022-11-12T10:48:54;12.27;;;7.37;;
5961;SDS011;3007;50.770;0.250;2022-11-12T10:51:25;9.93;;;6.80;;
5961;SDS011;3007;50.770;0.250;2022-11-12T10:53:53;7.77;;;6.80;;
5961;SDS011;3007;50.770;0.250;2022-11-12T10:56:22;8.27;;;6.37;;
5961;SDS011;3007;50.770;0.250;2022-11-12T10:59:13;10.60;;;7.13;;
5961;SDS011;3007;50.770;0.250;2022-11-12T11:01:41;9.13;;;6.90;;
5961;SDS011;3007;50.770;0.250;2022-11-12T11:04:16;9.93;;;7.17;;
5961;SDS011;3007;50.770;0.250;2022-11-12T11:06:59;10.70;;;6.70;;
5961;SDS011;3007;50.770;0.250;2022-11-12T11:09:31;9.17;;;7.20;;
5961;SDS011;3007;50.770;0.250;2022-11-12T11:11:59;8.63;;;7.10;;
5961;SDS011;3007;50.770;0.250;2022-11-12T11:14:31;9.83;;;7.13;;
5961;SDS011;3007;50.770;0.250;2022-11-12T11:17:00;8.97;;;7.20;;
5961;SDS011;3007;50.770;0.250;2022-11-12T11:19:35;8.70;;;7.10;;
5961;SDS011;3007;50.770;0.250;2022-11-12T11:22:05;8.63;;;7.23;;
5961;SDS011;3007;50.770;0.250;2022-11-12T11:24:49;10.97;;;7.60;;
5961;SDS011;3007;50.770;0.250;2022-11-12T11:27:27;9.37;;;7.20;;
5961;SDS011;3007;50.770;0.250;2022-11-12T11:30:02;9.47;;;7.23;;
5961;SDS011;3007;50.770;0.250;2022-11-12T11:32:54;9.83;;;7.23;;
5961;SDS011;3007;50.770;0.250;2022-11-12T11:35:43;8.33;;;6.60;;
5961;SDS011;3007;50.770;0.250;2022-11-12T11:38:25;13.40;;;7.43;;
5961;SDS011;3007;50.770;0.250;2022-11-12T11:41:05;12.87;;;7.87;;
5961;SDS011;3007;50.770;0.250;2022-11-12T11:43:45;10.93;;;7.97;;
5961;SDS011;3007;50.770;0.250;2022-11-12T11:46:28;11.17;;;7.67;;
5961;SDS011;3007;50.770;0.250;2022-11-12T11:49:12;10.87;;;7.03;;
5961;SDS011;3007;50.770;0.250;2022-11-12T11:51:59;10.40;;;7.23;;
5961;SDS011;3007;50.770;0.250;2022-11-12T11:57:25;8.97;;;7.67;;
5961;SDS011;3007;50.770;0.250;2022-11-12T12:00:00;9.87;;;6.90;;
5961;SDS011;3007;50.770;0.250;2022-11-12T12:02:43;12.48;;;6.85;;
5961;SDS011;3007;50.770;0.250;2022-11-12T12:05:28;7.20;;;6.40;;
5961;SDS011;3007;50.770;0.250;2022-11-12T12:08:04;8.23;;;6.43;;
5961;SDS011;3007;50.770;0.250;2022-11-12T12:10:40;8.77;;;5.90;;
5961;SDS011;3007;50.770;0.250;2022-11-12T12:13:17;7.13;;;5.35;;
5961;SDS011;3007;50.770;0.250;2022-11-12T12:16:02;10.27;;;6.15;;
5961;SDS011;3007;50.770;0.250;2022-11-12T12:18:42;9.20;;;5.83;;
5961;SDS011;3007;50.770;0.250;2022-11-12T12:21:17;6.97;;;5.68;;
5961;SDS011;3007;50.770;0.250;2022-11-12T12:23:47;9.50;;;5.97;;
5961;SDS011;3007;50.770;0.250;2022-11-12T12:26:17;7.80;;;6.43;;
5961;SDS011;3007;50.770;0.250;2022-11-12T12:28:49;7.03;;;5.77;;
5961;SDS011;3007;50.770;0.250;2022-11-12T12:31:21;9.65;;;6.05;;
5961;SDS011;3007;50.770;0.250;2022-11-12T12:33:53;10.38;;;5.72;;
5961;SDS011;3007;50.770;0.250;2022-11-12T12:36:23;7.43;;;6.03;;
5961;SDS011;3007;50.770;0.250;2022-11-12T12:39:01;7.30;;;5.73;;
5961;SDS011;3007;50.770;0.250;2022-11-12T12:41:36;9.45;;;5.72;;
5961;SDS011;3007;50.770;0.250;2022-11-12T12:44:08;8.50;;;5.72;;
5961;SDS011;3007;50.770;0.250;2022-11-12T12:46:37;8.60;;;5.73;;
5961;SDS011;3007;50.770;0.250;2022-11-12T12:49:09;6.20;;;5.20;;
5961;SDS011;3007;50.770;0.250;2022-11-12T12:51:40;9.27;;;5.70;;
5961;SDS011;3007;50.770;0.250;2022-11-12T12:57:31;9.97;;;6.33;;
5961;SDS011;3007;50.770;0.250;2022-11-12T13:02:50;6.60;;;5.50;;
5961;SDS011;3007;50.770;0.250;2022-11-12T13:05:25;12.07;;;5.87;;
5961;SDS011;3007;50.770;0.250;2022-11-12T13:07:55;8.57;;;5.90;;
5961;SDS011;3007;50.770;0.250;2022-11-12T13:13:23;8.30;;;5.80;;
5961;SDS011;3007;50.770;0.250;2022-11-12T13:15:58;9.23;;;5.68;;
5961;SDS011;3007;50.770;0.250;2022-11-12T13:21:25;8.40;;;5.87;;
5961;SDS011;3007;50.770;0.250;2022-11-12T13:23:52;9.60;;;6.60;;
5961;SDS011;3007;50.770;0.250;2022-11-12T13:26:41;8.10;;;5.70;;
5961;SDS011;3007;50.770;0.250;2022-11-12T13:29:22;7.90;;;6.10;;
5961;SDS011;3007;50.770;0.250;2022-11-12T13:37:50;10.05;;;6.22;;
5961;SDS011;3007;50.770;0.250;2022-11-12T13:40:19;8.27;;;6.53;;
5961;SDS011;3007;50.770;0.250;2022-11-12T13:43:02;8.70;;;6.20;;
5961;SDS011;3007;50.770;0.250;2022-11-12T13:45:33;10.23;;;7.10;;
5961;SDS011;3007;50.770;0.250;2022-11-12T13:48:06;7.68;;;5.75;;
5961;SDS011;3007;50.770;0.250;2022-11-12T13:50:37;8.47;;;6.30;;
5961;SDS011;3007;50.770;0.250;2022-11-12T13:53:07;8.23;;;6.50;;
5961;SDS011;3007;50.770;0.250;2022-11-12T13:55:36;7.80;;;6.83;;
5961;SDS011;3007;50.770;0.250;2022-11-12T13:58:17;9.63;;;6.78;;
5961;SDS011;3007;50.770;0.250;2022-11-12T14:00:51;8.63;;;7.68;;
5961;SDS011;3007;50.770;0.250;2022-11-12T14:03:20;9.45;;;7.32;;
5961;SDS011;3007;50.770;0.250;2022-11-12T14:05:48;7.70;;;6.73;;
5961;SDS011;3007;50.770;0.250;2022-11-12T14:08:20;13.38;;;6.93;;
5961;SDS011;3007;50.770;0.250;2022-11-12T14:14:09;8.30;;;7.40;;
5961;SDS011;3007;50.770;0.250;2022-11-12T14:16:47;10.85;;;7.03;;
5961;SDS011;3007;50.770;0.250;2022-11-12T14:22:26;8.70;;;6.90;;
5961;SDS011;3007;50.770;0.250;2022-11-12T14:25:09;9.27;;;7.23;;
5961;SDS011;3007;50.770;0.250;2022-11-12T14:27:39;8.13;;;6.73;;
5961;SDS011;3007;50.770;0.250;2022-11-12T14:30:17;10.95;;;7.38;;
5961;SDS011;3007;50.770;0.250;2022-11-12T14:32:46;8.63;;;6.47;;
5961;SDS011;3007;50.770;0.250;2022-11-12T14:35:18;9.50;;;6.75;;
5961;SDS011;3007;50.770;0.250;2022-11-12T14:37:57;8.40;;;7.10;;
5961;SDS011;3007;50.770;0.250;2022-11-12T14:40:31;8.10;;;6.53;;
5961;SDS011;3007;50.770;0.250;2022-11-12T14:43:00;10.67;;;6.87;;
5961;SDS011;3007;50.770;0.250;2022-11-12T14:45:27;10.47;;;6.97;;
5961;SDS011;3007;50.770;0.250;2022-11-12T14:47:54;9.57;;;7.30;;
5961;SDS011;3007;50.770;0.250;2022-11-12T14:50:23;9.97;;;7.07;;
5961;SDS011;3007;50.770;0.250;2022-11-12T14:52:54;13.00;;;7.70;;
5961;SDS011;3007;50.770;0.250;2022-11-12T14:55:25;9.10;;;7.23;;
5961;SDS011;3007;50.770;0.250;2022-11-12T14:57:56;9.60;;;6.77;;
5961;SDS011;3007;50.770;0.250;2022-11-12T15:03:08;9.43;;;6.97;;
5961;SDS011;3007;50.770;0.250;2022-11-12T15:05:53;9.53;;;7.00;;
5961;SDS011;3007;50.770;0.250;2022-11-12T15:08:29;10.43;;;7.38;;
5961;SDS011;3007;50.770;0.250;2022-11-12T15:11:22;14.80;;;7.37;;
5961;SDS011;3007;50.770;0.250;2022-11-12T15:13:53;9.33;;;7.67;;
5961;SDS011;3007;50.770;0.250;2022-11-12T15:16:25;10.63;;;7.90;;
5961;SDS011;3007;50.770;0.250;2022-11-12T15:19:13;9.97;;;7.33;;
5961;SDS011;3007;50.770;0.250;2022-11-12T15:21:44;9.53;;;7.57;;
5961;SDS011;3007;50.770;0.250;2022-11-12T15:24:15;15.23;;;8.20;;
5961;SDS011;3007;50.770;0.250;2022-11-12T15:26:51;12.23;;;8.13;;
5961;SDS011;3007;50.770;0.250;2022-11-12T15:29:25;9.00;;;8.10;;
5961;SDS011;3007;50.770;0.250;2022-11-12T15:31:54;11.27;;;8.60;;
5961;SDS011;3007;50.770;0.250;2022-11-12T15:34:24;13.47;;;8.70;;
5961;SDS011;3007;50.770;0.250;2022-11-12T15:36:57;12.87;;;8.60;;
5961;SDS011;3007;50.770;0.250;2022-11-12T15:39:26;11.43;;;8.30;;
5961;SDS011;3007;50.770;0.250;2022-11-12T15:41:58;10.10;;;8.07;;
5961;SDS011;3007;50.770;0.250;2022-11-12T15:44:30;9.43;;;8.53;;
5961;SDS011;3007;50.770;0.250;2022-11-12T15:47:00;11.73;;;8.23;;
5961;SDS011;3007;50.770;0.250;2022-11-12T15:49:27;13.27;;;8.40;;
5961;SDS011;3007;50.770;0.250;2022-11-12T15:51:54;12.00;;;8.93;;
5961;SDS011;3007;50.770;0.250;2022-11-12T15:54:21;12.57;;;7.70;;
5961;SDS011;3007;50.770;0.250;2022-11-12T15:56:49;8.70;;;7.80;;
5961;SDS011;3007;50.770;0.250;2022-11-12T15:59:16;11.40;;;9.53;;